createdAt,value
2023-10-11T00:00:10.728Z,992.4
2023-10-11T00:02:36.829Z,992.3
2023-10-11T00:05:02.921Z,992.4
2023-10-11T00:07:29.022Z,992.4
2023-10-11T00:09:55.134Z,992.4
2023-10-11T00:12:21.219Z,992.4
2023-10-11T00:14:47.296Z,992.4
2023-10-11T00:17:13.397Z,992.4
2023-10-11T00:19:39.486Z,992.4
2023-10-11T00:22:05.586Z,992.4
2023-10-11T00:24:31.688Z,992.4
2023-10-11T00:26:57.893Z,992.4
2023-10-11T00:29:24.003Z,992.4
2023-10-11T00:31:50.081Z,992.4
2023-10-11T00:34:16.178Z,992.4
2023-10-11T00:36:42.273Z,992.3
2023-10-11T00:39:08.361Z,992.4
2023-10-11T00:41:34.463Z,992.3
2023-10-11T00:44:00.558Z,992.3
2023-10-11T00:46:26.658Z,992.3
2023-10-11T00:48:52.754Z,992.3
2023-10-11T00:51:18.851Z,992.2
2023-10-11T00:53:44.948Z,992.1
2023-10-11T00:56:11.048Z,992.1
2023-10-11T00:58:36.158Z,992.2
2023-10-11T01:01:02.256Z,992.1
2023-10-11T01:03:28.350Z,992.2
2023-10-11T01:05:54.436Z,992.1
2023-10-11T01:08:20.532Z,992.1
2023-10-11T01:10:46.632Z,992.1
2023-10-11T01:13:12.724Z,992.1
2023-10-11T01:15:38.812Z,992.2
2023-10-11T01:18:04.914Z,992.2
2023-10-11T01:20:31.014Z,992.1
2023-10-11T01:22:57.109Z,992.1
2023-10-11T01:25:23.207Z,992.1
2023-10-11T01:27:49.299Z,992.1
2023-10-11T01:30:15.520Z,992
2023-10-11T01:32:41.614Z,992
2023-10-11T01:35:07.710Z,992
2023-10-11T01:37:33.800Z,992
2023-10-11T01:39:59.905Z,992
2023-10-11T01:42:25.993Z,992
2023-10-11T01:44:52.083Z,992
2023-10-11T01:47:18.181Z,992
2023-10-11T01:49:44.268Z,992
2023-10-11T01:52:10.384Z,992
2023-10-11T01:54:36.469Z,992
2023-10-11T01:57:02.562Z,992
2023-10-11T01:59:28.653Z,992
2023-10-11T02:01:53.760Z,991.9
2023-10-11T02:04:19.891Z,991.9
2023-10-11T02:06:45.948Z,991.9
2023-10-11T02:09:12.065Z,991.9
2023-10-11T02:11:38.160Z,991.9
2023-10-11T02:14:04.248Z,991.8
2023-10-11T02:16:30.334Z,991.9
2023-10-11T02:18:56.425Z,991.9
2023-10-11T02:21:22.543Z,991.9
2023-10-11T02:23:48.644Z,991.8
2023-10-11T02:26:14.727Z,991.8
2023-10-11T02:28:40.824Z,991.9
2023-10-11T02:31:06.900Z,991.8
2023-10-11T02:33:33.121Z,991.8
2023-10-11T02:35:59.232Z,991.8
2023-10-11T02:38:25.325Z,991.8
2023-10-11T02:40:51.410Z,991.8
2023-10-11T02:43:17.511Z,991.9
2023-10-11T02:45:43.607Z,991.8
2023-10-11T02:48:09.694Z,991.8
2023-10-11T02:50:35.797Z,991.7
2023-10-11T02:53:01.914Z,991.8
2023-10-11T02:55:27.987Z,991.8
2023-10-11T02:57:54.083Z,991.7
2023-10-11T03:00:20.176Z,991.7
2023-10-11T03:02:46.313Z,991.8
2023-10-11T03:05:11.380Z,991.7
2023-10-11T03:07:37.492Z,991.7
2023-10-11T03:10:03.562Z,991.7
2023-10-11T03:12:29.663Z,991.7
2023-10-11T03:14:55.773Z,991.8
2023-10-11T03:17:21.866Z,991.7
2023-10-11T03:19:47.961Z,991.8
2023-10-11T03:22:14.050Z,991.8
2023-10-11T03:24:40.147Z,991.7
2023-10-11T03:27:06.244Z,991.6
2023-10-11T03:29:32.339Z,991.7
2023-10-11T03:31:58.430Z,991.7
2023-10-11T03:34:24.522Z,991.6
2023-10-11T03:36:50.734Z,991.7
2023-10-11T03:39:16.836Z,991.6
2023-10-11T03:41:42.934Z,991.7
2023-10-11T03:44:09.016Z,991.7
2023-10-11T03:46:35.123Z,991.6
2023-10-11T03:49:01.223Z,991.6
2023-10-11T03:51:27.322Z,991.6
2023-10-11T03:53:53.399Z,991.6
2023-10-11T03:56:19.515Z,991.5
2023-10-11T03:58:45.596Z,991.6
2023-10-11T04:01:11.703Z,991.5
2023-10-11T04:03:37.796Z,991.5
2023-10-11T04:06:03.881Z,991.5
2023-10-11T04:08:29.002Z,991.5
2023-10-11T04:10:55.097Z,991.4
2023-10-11T04:13:21.170Z,991.5
2023-10-11T04:15:47.276Z,991.5
2023-10-11T04:18:13.366Z,991.5
2023-10-11T04:20:39.472Z,991.5
2023-10-11T04:23:05.561Z,991.5
2023-10-11T04:25:31.647Z,991.5
2023-10-11T04:27:57.746Z,991.5
2023-10-11T04:30:23.847Z,991.5
2023-10-11T04:32:49.936Z,991.5
2023-10-11T04:35:16.040Z,991.6
2023-10-11T04:37:42.129Z,991.6
2023-10-11T04:40:08.343Z,991.6
2023-10-11T04:42:34.450Z,991.6
2023-10-11T04:45:00.536Z,991.6
2023-10-11T04:47:26.638Z,991.6
2023-10-11T04:49:52.726Z,991.6
2023-10-11T04:52:18.833Z,991.6
2023-10-11T04:54:44.911Z,991.6
2023-10-11T04:57:11.025Z,991.7
2023-10-11T04:59:37.112Z,991.7
2023-10-11T05:02:03.204Z,991.6
2023-10-11T05:04:29.309Z,991.6
2023-10-11T05:06:55.396Z,991.6
2023-10-11T05:09:21.508Z,991.7
2023-10-11T05:11:46.673Z,991.6
2023-10-11T05:14:12.738Z,991.6
2023-10-11T05:16:38.798Z,991.7
2023-10-11T05:19:04.877Z,991.7
2023-10-11T05:21:30.973Z,991.7
2023-10-11T05:23:57.084Z,991.6
2023-10-11T05:26:22.206Z,991.6
2023-10-11T05:28:48.285Z,991.7
2023-10-11T05:31:14.388Z,991.7
2023-10-11T05:36:06.573Z,991.7
2023-10-11T05:38:32.678Z,991.6
2023-10-11T05:40:58.759Z,991.7
2023-10-11T05:43:24.875Z,991.7
2023-10-11T05:45:50.966Z,991.6
2023-10-11T05:48:17.040Z,991.7
2023-10-11T05:50:43.144Z,991.7
2023-10-11T05:53:09.230Z,991.7
2023-10-11T05:55:35.334Z,991.7
2023-10-11T05:58:01.555Z,991.8
2023-10-11T06:00:27.771Z,991.8
2023-10-11T06:02:53.748Z,991.8
2023-10-11T06:05:19.833Z,991.8
2023-10-11T06:07:45.931Z,991.9
2023-10-11T06:10:12.050Z,991.9
2023-10-11T06:12:38.162Z,991.9
2023-10-11T06:15:04.231Z,992
2023-10-11T06:17:30.313Z,991.9
2023-10-11T06:19:56.420Z,992
2023-10-11T06:22:22.507Z,991.9
2023-10-11T06:24:48.611Z,991.9
2023-10-11T06:27:14.697Z,991.9
2023-10-11T06:29:39.821Z,991.8
2023-10-11T06:32:05.903Z,991.8
2023-10-11T06:34:31.996Z,991.7
2023-10-11T06:36:58.115Z,991.7
2023-10-11T06:39:24.196Z,991.8
2023-10-11T06:41:50.298Z,991.8
2023-10-11T06:44:16.387Z,991.8
2023-10-11T06:46:42.473Z,991.7
2023-10-11T06:49:08.578Z,991.7
2023-10-11T06:51:34.688Z,991.8
2023-10-11T06:54:00.768Z,991.8
2023-10-11T06:56:26.869Z,991.8
2023-10-11T06:58:52.943Z,991.8
2023-10-11T07:01:19.167Z,991.8
2023-10-11T07:03:45.264Z,991.7
2023-10-11T07:06:11.364Z,991.8
2023-10-11T07:08:37.484Z,991.8
2023-10-11T07:11:03.554Z,991.8
2023-10-11T07:13:29.640Z,991.8
2023-10-11T07:15:55.935Z,991.8
2023-10-11T07:18:21.835Z,991.8
2023-10-11T07:20:48.142Z,991.8
2023-10-11T07:23:14.030Z,991.8
2023-10-11T07:25:40.111Z,991.8
2023-10-11T07:28:06.228Z,991.8
2023-10-11T07:30:32.306Z,991.9
2023-10-11T07:32:57.413Z,991.8
2023-10-11T07:35:23.509Z,991.9
2023-10-11T07:37:49.608Z,992
2023-10-11T07:40:15.717Z,992
2023-10-11T07:42:41.803Z,991.9
2023-10-11T07:45:07.889Z,991.9
2023-10-11T07:47:34.062Z,992
2023-10-11T07:50:00.136Z,992
2023-10-11T07:54:52.290Z,992
2023-10-11T07:57:18.386Z,992
2023-10-11T07:59:44.468Z,991.9
2023-10-11T08:02:10.569Z,991.9
2023-10-11T08:04:36.794Z,992
2023-10-11T08:07:02.867Z,992
2023-10-11T08:09:28.971Z,991.9
2023-10-11T08:11:55.057Z,991.9
2023-10-11T08:14:21.155Z,991.8
2023-10-11T08:16:47.268Z,991.8
2023-10-11T08:19:13.345Z,991.9
2023-10-11T08:21:39.456Z,991.8
2023-10-11T08:24:05.535Z,991.9
2023-10-11T08:26:31.626Z,991.9
2023-10-11T08:28:57.759Z,991.9
2023-10-11T08:31:23.816Z,991.9
2023-10-11T08:33:49.930Z,991.8
2023-10-11T08:36:15.035Z,991.8
2023-10-11T08:38:41.119Z,991.8
2023-10-11T08:41:07.211Z,991.9
2023-10-11T08:43:33.312Z,991.8
2023-10-11T08:45:59.405Z,991.8
2023-10-11T08:48:25.521Z,991.8
2023-10-11T08:50:51.605Z,991.8
2023-10-11T08:53:17.684Z,991.8
2023-10-11T08:55:43.797Z,991.8
2023-10-11T08:58:09.879Z,991.8
2023-10-11T09:00:35.980Z,991.8
2023-10-11T09:03:02.063Z,991.8
2023-10-11T09:05:28.163Z,991.7
2023-10-11T09:07:54.399Z,991.6
2023-10-11T09:10:20.498Z,991.6
2023-10-11T09:12:46.571Z,991.6
2023-10-11T09:15:12.675Z,991.6
2023-10-11T09:17:38.762Z,991.5
2023-10-11T09:20:04.861Z,991.5
2023-10-11T09:22:30.957Z,991.5
2023-10-11T09:24:57.054Z,991.5
2023-10-11T09:27:23.146Z,991.5
2023-10-11T09:29:49.243Z,991.5
2023-10-11T09:32:15.755Z,991.5
2023-10-11T09:34:41.442Z,991.5
2023-10-11T09:37:07.554Z,991.5
2023-10-11T09:39:32.710Z,991.4
2023-10-11T09:41:58.740Z,991.4
2023-10-11T09:44:24.830Z,991.5
2023-10-11T09:46:50.924Z,991.5
2023-10-11T09:49:17.015Z,991.5
2023-10-11T09:51:43.125Z,991.5
2023-10-11T09:54:09.296Z,991.5
2023-10-11T09:56:35.307Z,991.5
2023-10-11T09:59:01.391Z,991.5
2023-10-11T10:01:27.510Z,991.5
2023-10-11T10:03:53.574Z,991.5
2023-10-11T10:06:19.699Z,991.5
2023-10-11T10:08:45.769Z,991.5
2023-10-11T10:11:12.002Z,991.4
2023-10-11T10:13:38.141Z,991.3
2023-10-11T10:16:04.217Z,991.3
2023-10-11T10:18:30.285Z,991.4
2023-10-11T10:20:56.374Z,991.5
2023-10-11T10:23:22.538Z,991.5
2023-10-11T10:25:48.576Z,991.4
2023-10-11T10:28:14.652Z,991.4
2023-10-11T10:30:40.744Z,991.4
2023-10-11T10:33:06.843Z,991.4
2023-10-11T10:35:32.945Z,991.3
2023-10-11T10:37:59.101Z,991.3
2023-10-11T10:40:25.134Z,991.3
2023-10-11T10:42:50.243Z,991.3
2023-10-11T10:45:16.393Z,991.3
2023-10-11T10:47:42.441Z,991.3
2023-10-11T10:50:08.622Z,991.3
2023-10-11T10:52:34.630Z,991.3
2023-10-11T10:55:00.726Z,991.2
2023-10-11T10:57:26.810Z,991.3
2023-10-11T10:59:52.909Z,991.1
2023-10-11T11:02:19.000Z,991
2023-10-11T11:04:45.098Z,991
2023-10-11T11:07:11.194Z,991
2023-10-11T11:09:37.277Z,991
2023-10-11T11:12:03.396Z,990.9
2023-10-11T11:14:29.594Z,990.9
2023-10-11T11:16:55.692Z,990.9
2023-10-11T11:19:21.776Z,990.8
2023-10-11T11:21:47.878Z,990.8
2023-10-11T11:24:13.961Z,990.8
2023-10-11T11:26:40.066Z,990.7
2023-10-11T11:29:06.168Z,990.8
2023-10-11T11:31:32.266Z,990.8
2023-10-11T11:33:58.358Z,990.7
2023-10-11T11:36:24.425Z,990.8
2023-10-11T11:38:50.578Z,990.7
2023-10-11T11:41:16.628Z,990.7
2023-10-11T11:43:42.784Z,990.7
2023-10-11T11:46:07.938Z,990.6
2023-10-11T11:48:33.931Z,990.6
2023-10-11T11:51:00.037Z,990.5
2023-10-11T11:53:26.128Z,990.4
2023-10-11T11:55:52.272Z,990.5
2023-10-11T11:58:18.317Z,990.4
2023-10-11T12:00:44.406Z,990.4
2023-10-11T12:03:10.492Z,990.3
2023-10-11T12:05:36.602Z,990.3
2023-10-11T12:08:02.733Z,990.2
2023-10-11T12:10:28.790Z,990.3
2023-10-11T12:12:54.875Z,990.1
2023-10-11T12:15:20.982Z,990.2
2023-10-11T12:17:47.198Z,990.1
2023-10-11T12:20:13.289Z,990.1
2023-10-11T12:22:39.378Z,990.1
2023-10-11T12:25:05.500Z,990.1
2023-10-11T12:27:32.001Z,990.1
2023-10-11T12:29:57.671Z,990
2023-10-11T12:32:23.773Z,990
2023-10-11T12:34:49.866Z,990
2023-10-11T12:37:15.951Z,990
2023-10-11T12:39:42.039Z,990
2023-10-11T12:42:08.144Z,990
2023-10-11T12:44:34.227Z,990
2023-10-11T12:47:00.323Z,990
2023-10-11T12:49:26.427Z,990
2023-10-11T12:51:52.639Z,989.9
2023-10-11T12:54:18.718Z,990
2023-10-11T12:56:44.822Z,989.9
2023-10-11T12:59:10.938Z,989.9
2023-10-11T13:01:37.011Z,989.9
2023-10-11T13:04:03.115Z,989.8
2023-10-11T13:06:29.205Z,989.9
2023-10-11T13:08:55.297Z,989.9
2023-10-11T13:11:21.491Z,989.9
2023-10-11T13:13:47.497Z,989.9
2023-10-11T13:16:13.631Z,989.9
2023-10-11T13:18:39.718Z,989.8
2023-10-11T13:21:05.775Z,989.9
2023-10-11T13:23:30.916Z,989.8
2023-10-11T13:25:57.018Z,989.8
2023-10-11T13:28:23.097Z,989.8
2023-10-11T13:30:49.169Z,989.8
2023-10-11T13:33:15.261Z,989.7
2023-10-11T13:35:41.496Z,989.7
2023-10-11T13:38:07.582Z,989.7
2023-10-11T13:40:33.684Z,989.6
2023-10-11T13:42:59.763Z,989.6
2023-10-11T13:45:25.874Z,989.6
2023-10-11T13:47:51.969Z,989.6
2023-10-11T13:50:18.052Z,989.6
2023-10-11T13:52:44.153Z,989.5
2023-10-11T13:55:10.254Z,989.6
2023-10-11T13:57:36.334Z,989.6
2023-10-11T14:00:02.447Z,989.5
2023-10-11T14:02:28.662Z,989.5
2023-10-11T14:04:54.643Z,989.5
2023-10-11T14:07:19.767Z,989.5
2023-10-11T14:09:45.867Z,989.4
2023-10-11T14:12:11.933Z,989.4
2023-10-11T14:14:38.031Z,989.3
2023-10-11T14:17:04.121Z,989.3
2023-10-11T14:19:30.208Z,989.3
2023-10-11T14:21:56.315Z,989.3
2023-10-11T14:24:22.407Z,989.3
2023-10-11T14:26:48.514Z,989.4
2023-10-11T14:29:14.608Z,989.3
2023-10-11T14:31:40.696Z,989.3
2023-10-11T14:34:06.812Z,989.3
2023-10-11T14:36:32.928Z,989.3
2023-10-11T14:38:59.105Z,989.2
2023-10-11T14:41:25.193Z,989.1
2023-10-11T14:43:51.283Z,989.1
2023-10-11T14:46:17.380Z,989.1
2023-10-11T14:48:43.483Z,989.1
2023-10-11T14:51:09.583Z,989
2023-10-11T14:53:35.671Z,989.1
2023-10-11T14:56:01.756Z,989
2023-10-11T14:58:27.851Z,989
2023-10-11T15:00:54.006Z,989
2023-10-11T15:03:20.045Z,989
2023-10-11T15:05:46.163Z,989
2023-10-11T15:08:12.254Z,989
2023-10-11T15:10:37.356Z,989
2023-10-11T15:13:03.455Z,989
2023-10-11T15:15:29.543Z,989
2023-10-11T15:17:55.637Z,989
2023-10-11T15:20:21.739Z,989.1
2023-10-11T15:22:47.860Z,989
2023-10-11T15:25:13.914Z,989
2023-10-11T15:27:40.016Z,989
2023-10-11T15:30:06.106Z,989
2023-10-11T15:32:32.220Z,989
2023-10-11T15:34:58.307Z,989
2023-10-11T15:37:24.382Z,988.9
2023-10-11T15:39:50.516Z,988.9
2023-10-11T15:42:16.693Z,988.9
2023-10-11T15:44:42.796Z,988.9
2023-10-11T15:47:08.890Z,988.9
2023-10-11T15:49:34.992Z,988.9
2023-10-11T15:52:01.075Z,988.9
2023-10-11T15:54:27.188Z,988.9
2023-10-11T15:56:53.276Z,988.9
2023-10-11T15:59:19.359Z,988.9
2023-10-11T16:01:45.465Z,988.9
2023-10-11T16:04:11.613Z,988.9
2023-10-11T16:06:37.664Z,988.9
2023-10-11T16:09:03.911Z,988.9
2023-10-11T16:11:29.849Z,989
2023-10-11T16:13:54.961Z,988.9
2023-10-11T16:16:21.074Z,989
2023-10-11T16:18:47.132Z,989
2023-10-11T16:21:13.235Z,989
2023-10-11T16:23:39.326Z,989
2023-10-11T16:26:05.437Z,989
2023-10-11T16:28:31.515Z,989
2023-10-11T16:30:57.613Z,989.1
2023-10-11T16:33:23.707Z,989.1
2023-10-11T16:35:49.861Z,989
2023-10-11T16:38:15.908Z,989.1
2023-10-11T16:40:42.034Z,989.1
2023-10-11T16:43:08.103Z,989.1
2023-10-11T16:45:34.314Z,989.1
2023-10-11T16:48:00.416Z,989
2023-10-11T16:50:26.495Z,989.1
2023-10-11T16:52:52.582Z,989.1
2023-10-11T16:55:18.704Z,989.1
2023-10-11T16:57:44.791Z,989.1
2023-10-11T17:00:10.868Z,989.2
2023-10-11T17:02:36.981Z,989.1
2023-10-11T17:05:03.072Z,989.2
2023-10-11T17:07:29.172Z,989.2
2023-10-11T17:09:55.246Z,989.1
2023-10-11T17:12:21.370Z,989.1
2023-10-11T17:14:47.452Z,989.2
2023-10-11T17:17:12.556Z,989.2
2023-10-11T17:19:38.651Z,989.1
2023-10-11T17:22:04.750Z,989.1
2023-10-11T17:24:30.843Z,989.2
2023-10-11T17:26:56.932Z,989.1
2023-10-11T17:29:23.042Z,989.2
2023-10-11T17:31:49.245Z,989.2
2023-10-11T17:34:15.238Z,989.2
2023-10-11T17:36:41.306Z,989.2
2023-10-11T17:39:07.547Z,989.1
2023-10-11T17:41:33.520Z,989.3
2023-10-11T17:43:59.604Z,989.3
2023-10-11T17:46:25.704Z,989.3
2023-10-11T17:48:51.943Z,989.4
2023-10-11T17:51:18.006Z,989.3
2023-10-11T17:53:44.185Z,989.3
2023-10-11T17:56:10.191Z,989.3
2023-10-11T17:58:36.302Z,989.3
2023-10-11T18:01:02.404Z,989.3
2023-10-11T18:03:28.493Z,989.3
2023-10-11T18:05:54.578Z,989.3
2023-10-11T18:08:20.723Z,989.2
2023-10-11T18:10:46.839Z,989.3
2023-10-11T18:13:12.868Z,989.2
2023-10-11T18:15:38.971Z,989.2
2023-10-11T18:18:05.065Z,989.2
2023-10-11T18:20:30.203Z,989.2
2023-10-11T18:22:56.293Z,989.2
2023-10-11T18:25:22.391Z,989.2
2023-10-11T18:27:48.477Z,989.2
2023-10-11T18:30:14.666Z,989.2
2023-10-11T18:32:40.674Z,989.2
2023-10-11T18:35:06.755Z,989.2
2023-10-11T18:37:32.846Z,989.2
2023-10-11T18:39:58.952Z,989.2
2023-10-11T18:42:25.050Z,989.2
2023-10-11T18:44:51.138Z,989.2
2023-10-11T18:47:17.291Z,989.2
2023-10-11T18:49:43.337Z,989.1
2023-10-11T18:52:08.447Z,989.1
2023-10-11T18:54:34.544Z,989.1
2023-10-11T18:57:00.625Z,989.1
2023-10-11T18:59:26.826Z,989
2023-10-11T19:01:52.910Z,989.1
2023-10-11T19:04:18.882Z,989.2
2023-10-11T19:06:45.012Z,989.1
2023-10-11T19:09:11.097Z,989.2
2023-10-11T19:11:37.192Z,989.1
2023-10-11T19:14:03.275Z,989.1
2023-10-11T19:16:29.369Z,989.2
2023-10-11T19:18:55.475Z,989.1
2023-10-11T19:21:21.563Z,989.1
2023-10-11T19:23:46.737Z,989.1
2023-10-11T19:26:12.790Z,989.1
2023-10-11T19:28:38.934Z,989.1
2023-10-11T19:31:04.968Z,989.2
2023-10-11T19:33:31.082Z,989.2
2023-10-11T19:35:57.331Z,989.2
2023-10-11T19:38:23.260Z,989.2
2023-10-11T19:40:49.352Z,989.2
2023-10-11T19:43:15.450Z,989.2
2023-10-11T19:45:41.563Z,989.3
2023-10-11T19:48:07.633Z,989.3
2023-10-11T19:50:33.769Z,989.3
2023-10-11T19:52:59.920Z,989.2
2023-10-11T19:55:24.946Z,989.2
2023-10-11T19:57:51.068Z,989.3
2023-10-11T20:00:17.253Z,989.3
2023-10-11T20:02:43.221Z,989.3
2023-10-11T20:05:09.421Z,989.3
2023-10-11T20:07:35.487Z,989.4
2023-10-11T20:10:01.506Z,989.3
2023-10-11T20:12:27.608Z,989.3
2023-10-11T20:14:53.731Z,989.2
2023-10-11T20:17:19.782Z,989.3
2023-10-11T20:19:45.886Z,989.3
2023-10-11T20:22:11.986Z,989.3
2023-10-11T20:24:38.077Z,989.3
2023-10-11T20:27:03.232Z,989.2
2023-10-11T20:29:29.282Z,989.3
2023-10-11T20:31:55.384Z,989.3
2023-10-11T20:34:21.476Z,989.3
2023-10-11T20:36:47.571Z,989.3
2023-10-11T20:39:13.663Z,989.2
2023-10-11T20:41:39.764Z,989.2
2023-10-11T20:44:05.835Z,989.2
2023-10-11T20:46:31.944Z,989.2
2023-10-11T20:48:58.103Z,989.3
2023-10-11T20:51:24.143Z,989.3
2023-10-11T20:53:50.232Z,989.3
2023-10-11T20:56:16.324Z,989.3
2023-10-11T20:58:41.437Z,989.3
2023-10-11T21:01:07.548Z,989.3
2023-10-11T21:03:33.632Z,989.2
2023-10-11T21:05:59.749Z,989.3
2023-10-11T21:08:25.825Z,989.3
2023-10-11T21:10:51.901Z,989.3
2023-10-11T21:13:18.004Z,989.4
2023-10-11T21:15:44.117Z,989.4
2023-10-11T21:18:10.183Z,989.4
2023-10-11T21:20:36.284Z,989.4
2023-10-11T21:23:02.379Z,989.3
2023-10-11T21:25:28.473Z,989.4
2023-10-11T21:27:54.577Z,989.4
2023-10-11T21:30:19.700Z,989.3
2023-10-11T21:32:45.780Z,989.3
2023-10-11T21:35:11.881Z,989.4
2023-10-11T21:37:37.964Z,989.3
2023-10-11T21:40:04.063Z,989.3
2023-10-11T21:42:30.208Z,989.3
2023-10-11T21:44:55.273Z,989.3
2023-10-11T21:47:21.362Z,989.3
2023-10-11T21:49:47.460Z,989.3
2023-10-11T21:52:13.555Z,989.3
2023-10-11T21:54:39.648Z,989.2
2023-10-11T21:57:05.735Z,989.2
2023-10-11T21:59:31.852Z,989.2
2023-10-11T22:01:57.936Z,989.2
2023-10-11T22:04:24.030Z,989.2
2023-10-11T22:06:50.125Z,989.2
2023-10-11T22:09:16.228Z,989.2
2023-10-11T22:11:42.344Z,989.1
2023-10-11T22:14:08.476Z,989
2023-10-11T22:16:33.511Z,989
2023-10-11T22:18:59.632Z,989
2023-10-11T22:21:25.728Z,989
2023-10-11T22:23:51.905Z,989
2023-10-11T22:26:17.966Z,989
2023-10-11T22:28:43.998Z,989
2023-10-11T22:31:10.081Z,989
2023-10-11T22:33:36.176Z,989
2023-10-11T22:36:02.314Z,988.9
2023-10-11T22:38:28.371Z,988.9
2023-10-11T22:43:20.555Z,988.9
2023-10-11T22:45:46.649Z,988.9
2023-10-11T22:48:11.773Z,988.9
2023-10-11T22:50:37.887Z,988.8
2023-10-11T22:53:03.957Z,988.8
2023-10-11T22:55:30.038Z,988.9
2023-10-11T22:57:56.143Z,988.9
2023-10-11T23:00:22.243Z,988.8
2023-10-11T23:02:48.343Z,988.8
2023-10-11T23:05:14.433Z,988.9
2023-10-11T23:07:40.541Z,988.9
2023-10-11T23:10:06.624Z,989
2023-10-11T23:12:32.727Z,989
2023-10-11T23:14:58.820Z,988.9
2023-10-11T23:17:24.936Z,989
2023-10-11T23:19:50.007Z,988.9
2023-10-11T23:22:16.114Z,988.9
2023-10-11T23:24:42.215Z,988.9
2023-10-11T23:27:08.309Z,988.9
2023-10-11T23:29:34.398Z,988.9
2023-10-11T23:32:00.487Z,988.9
2023-10-11T23:34:26.588Z,988.8
2023-10-11T23:36:52.742Z,988.9
2023-10-11T23:39:18.807Z,988.9
2023-10-11T23:41:44.873Z,988.9
2023-10-11T23:44:10.998Z,988.9
2023-10-11T23:46:37.051Z,988.9
2023-10-11T23:49:03.140Z,988.9
2023-10-11T23:51:28.300Z,988.9
2023-10-11T23:53:54.364Z,989
2023-10-11T23:56:20.456Z,989
2023-10-11T23:58:46.545Z,988.9
